createdAt,value
2023-04-17T00:01:44.198Z,74.89
2023-04-17T00:04:13.079Z,74.39
2023-04-17T00:06:43.201Z,75.38
2023-04-17T00:09:10.934Z,75.39
2023-04-17T00:11:38.528Z,76.14
2023-04-17T00:14:06.111Z,76.71
2023-04-17T00:16:33.431Z,76.77
2023-04-17T00:19:00.808Z,75.89
2023-04-17T00:21:29.975Z,76.39
2023-04-17T00:23:57.251Z,75.75
2023-04-17T00:26:24.429Z,76.13
2023-04-17T00:28:51.944Z,75.91
2023-04-17T00:31:19.314Z,75.80
2023-04-17T00:33:46.705Z,76.19
2023-04-17T00:36:15.406Z,76.01
2023-04-17T00:38:42.692Z,76.48
2023-04-17T00:41:09.985Z,76.14
2023-04-17T00:43:37.296Z,76.13
2023-04-17T00:46:04.858Z,76.48
2023-04-17T00:48:34.161Z,76.67
2023-04-17T00:51:03.256Z,77.61
2023-04-17T00:53:31.574Z,78.22
2023-04-17T00:56:00.689Z,77.11
2023-04-17T00:58:27.836Z,76.78
2023-04-17T01:00:55.182Z,76.74
2023-04-17T01:03:23.147Z,76.97
2023-04-17T01:05:51.669Z,77.97
2023-04-17T01:08:19.442Z,78.72
2023-04-17T01:10:46.793Z,78.67
2023-04-17T01:13:13.905Z,79.64
2023-04-17T01:15:42.998Z,78.77
2023-04-17T01:18:10.244Z,78.19
2023-04-17T01:20:37.728Z,78.17
2023-04-17T01:23:04.865Z,77.79
2023-04-17T01:25:31.929Z,77.53
2023-04-17T01:27:59.337Z,77.55
2023-04-17T01:30:28.672Z,77.80
2023-04-17T01:33:01.645Z,77.46
2023-04-17T01:35:29.089Z,78.02
2023-04-17T01:37:56.382Z,78.71
2023-04-17T01:40:23.408Z,78.74
2023-04-17T01:42:50.472Z,79.82
2023-04-17T01:45:17.612Z,80.10
2023-04-17T01:47:44.752Z,79.11
2023-04-17T01:50:12.234Z,79.77
2023-04-17T01:52:39.954Z,79.70
2023-04-17T01:55:07.430Z,79.10
2023-04-17T01:57:34.546Z,80.53
2023-04-17T02:00:01.730Z,80.27
2023-04-17T02:02:39.701Z,80.92
2023-04-17T02:05:07.299Z,80.50
2023-04-17T02:07:34.442Z,79.83
2023-04-17T02:10:01.588Z,80.11
2023-04-17T02:12:28.647Z,81.53
2023-04-17T02:15:00.863Z,81.09
2023-04-17T02:17:28.242Z,81.49
2023-04-17T02:19:55.368Z,82.90
2023-04-17T02:22:22.442Z,82.57
2023-04-17T02:24:49.578Z,82.09
2023-04-17T02:27:17.275Z,81.65
2023-04-17T02:29:44.297Z,81.81
2023-04-17T02:32:11.417Z,82.10
2023-04-17T02:34:38.558Z,82.47
2023-04-17T02:37:06.090Z,83.17
2023-04-17T02:39:35.221Z,83.96
2023-04-17T02:42:03.142Z,83.93
2023-04-17T02:44:30.542Z,83.11
2023-04-17T02:46:58.034Z,83.54
2023-04-17T02:49:26.672Z,83.48
2023-04-17T02:51:53.890Z,82.90
2023-04-17T02:54:21.113Z,83.53
2023-04-17T02:56:48.685Z,82.80
2023-04-17T02:59:15.891Z,82.18
2023-04-17T03:01:43.018Z,82.58
2023-04-17T03:04:10.443Z,82.53
2023-04-17T03:06:37.639Z,81.74
2023-04-17T03:09:04.990Z,82.66
2023-04-17T03:11:32.208Z,83.19
2023-04-17T03:13:59.286Z,83.19
2023-04-17T03:16:26.392Z,83.24
2023-04-17T03:18:55.996Z,82.33
2023-04-17T03:21:23.105Z,83.26
2023-04-17T03:23:50.872Z,84.18
2023-04-17T03:26:20.610Z,83.93
2023-04-17T03:28:48.722Z,83.99
2023-04-17T03:31:16.012Z,85.53
2023-04-17T03:33:43.111Z,85.93
2023-04-17T03:36:10.451Z,84.19
2023-04-17T03:38:38.376Z,84.53
2023-04-17T03:41:07.860Z,84.59
2023-04-17T03:43:34.997Z,83.96
2023-04-17T03:46:02.270Z,84.03
2023-04-17T03:48:30.604Z,83.63
2023-04-17T03:50:57.716Z,84.67
2023-04-17T03:53:24.819Z,86.41
2023-04-17T03:55:53.436Z,85.16
2023-04-17T03:58:27.711Z,85.11
2023-04-17T04:00:55.662Z,85.63
2023-04-17T04:03:26.467Z,86.05
2023-04-17T04:05:54.100Z,85.70
2023-04-17T04:08:21.373Z,84.64
2023-04-17T04:10:51.859Z,85.01
2023-04-17T04:13:25.009Z,85.82
2023-04-17T04:15:56.624Z,86.82
2023-04-17T04:18:26.234Z,86.51
2023-04-17T04:20:53.620Z,84.70
2023-04-17T04:23:46.655Z,85.25
2023-04-17T04:26:18.447Z,83.72
2023-04-17T04:28:51.244Z,82.34
2023-04-17T04:31:29.794Z,80.18
2023-04-17T04:33:59.197Z,79.33
2023-04-17T04:36:30.010Z,79.31
2023-04-17T04:39:10.444Z,78.95
2023-04-17T04:41:38.329Z,79.22
2023-04-17T04:44:08.877Z,78.61
2023-04-17T04:46:38.810Z,78.22
2023-04-17T04:49:06.865Z,78.01
2023-04-17T04:51:34.485Z,77.26
2023-04-17T04:54:04.605Z,75.85
2023-04-17T04:56:33.245Z,75.15
2023-04-17T04:59:00.603Z,74.11
2023-04-17T05:01:30.286Z,75.30
2023-04-17T05:03:57.749Z,75.82
2023-04-17T05:06:28.591Z,75.93
2023-04-17T05:09:00.872Z,75.81
2023-04-17T05:11:28.025Z,74.40
2023-04-17T05:13:55.757Z,75.17
2023-04-17T05:16:26.685Z,77.06
2023-04-17T05:18:53.953Z,75.68
2023-04-17T05:21:32.511Z,76.21
2023-04-17T05:24:01.320Z,76.49
2023-04-17T05:26:28.499Z,76.77
2023-04-17T05:28:55.772Z,75.18
2023-04-17T05:31:27.188Z,73.97
2023-04-17T05:33:55.903Z,73.91
2023-04-17T05:36:22.997Z,72.58
2023-04-17T05:38:52.031Z,71.87
2023-04-17T05:41:19.180Z,71.58
2023-04-17T05:43:46.564Z,71.98
2023-04-17T05:46:13.690Z,72.96
2023-04-17T05:48:43.395Z,72.41
2023-04-17T05:51:10.518Z,71.15
2023-04-17T05:53:38.294Z,71.14
2023-04-17T05:56:05.629Z,70.88
2023-04-17T05:58:36.116Z,70.63
2023-04-17T06:01:06.336Z,70.50
2023-04-17T06:03:34.585Z,69.71
2023-04-17T06:06:10.222Z,69.87
2023-04-17T06:08:37.324Z,69.43
2023-04-17T06:11:05.557Z,70.38
2023-04-17T06:13:33.570Z,71.73
2023-04-17T06:16:00.927Z,71.89
2023-04-17T06:18:28.119Z,71.23
2023-04-17T06:20:55.350Z,68.73
2023-04-17T06:23:22.419Z,68.78
2023-04-17T06:25:49.700Z,68.46
2023-04-17T06:28:16.849Z,68.31
2023-04-17T06:30:44.153Z,68.60
2023-04-17T06:33:11.271Z,68.34
2023-04-17T06:35:38.755Z,70.18
2023-04-17T06:38:15.556Z,68.37
2023-04-17T06:40:43.580Z,67.69
2023-04-17T06:43:11.678Z,67.11
2023-04-17T06:45:42.365Z,66.56
2023-04-17T06:48:09.525Z,66.84
2023-04-17T06:50:36.646Z,66.21
2023-04-17T06:53:03.692Z,66.04
2023-04-17T06:55:30.790Z,68.44
2023-04-17T06:57:57.798Z,67.72
2023-04-17T07:00:24.978Z,66.99
2023-04-17T07:02:52.190Z,67.92
2023-04-17T07:05:19.532Z,71.54
2023-04-17T07:07:47.862Z,70.99
2023-04-17T07:10:16.059Z,70.55
2023-04-17T07:12:43.286Z,69.39
2023-04-17T07:15:10.564Z,68.50
2023-04-17T07:17:37.722Z,69.83
2023-04-17T07:20:05.744Z,66.10
2023-04-17T07:22:34.380Z,62.94
2023-04-17T07:25:01.530Z,62.22
2023-04-17T07:27:29.088Z,64.50
2023-04-17T07:29:56.433Z,64.62
2023-04-17T07:32:26.557Z,64.82
2023-04-17T07:34:53.710Z,65.63
2023-04-17T07:37:21.470Z,65.49
2023-04-17T07:39:49.492Z,66.16
2023-04-17T07:42:16.747Z,66.79
2023-04-17T07:44:43.831Z,67.24
2023-04-17T07:47:11.106Z,65.03
2023-04-17T07:49:40.404Z,63.00
2023-04-17T07:52:07.676Z,59.81
2023-04-17T07:54:34.849Z,60.72
2023-04-17T07:57:03.593Z,61.07
2023-04-17T07:59:30.838Z,60.70
2023-04-17T08:01:58.206Z,56.14
2023-04-17T08:04:26.185Z,55.85
2023-04-17T08:06:53.523Z,53.28
2023-04-17T08:09:21.254Z,53.56
2023-04-17T08:11:56.942Z,51.73
2023-04-17T08:14:25.433Z,49.48
2023-04-17T08:16:52.818Z,46.94
2023-04-17T08:19:20.093Z,44.84
2023-04-17T08:21:47.548Z,45.52
2023-04-17T08:24:15.469Z,46.39
2023-04-17T08:26:43.744Z,46.86
2023-04-17T08:29:11.136Z,47.34
2023-04-17T08:31:39.918Z,48.85
2023-04-17T08:34:14.568Z,46.87
2023-04-17T08:36:43.152Z,44.95
2023-04-17T08:39:12.395Z,46.12
2023-04-17T08:41:42.985Z,46.48
2023-04-17T08:44:10.216Z,47.66
2023-04-17T08:46:38.185Z,48.06
2023-04-17T08:49:05.460Z,48.96
2023-04-17T08:51:32.749Z,47.13
2023-04-17T08:53:59.925Z,46.20
2023-04-17T08:56:28.720Z,44.67
2023-04-17T08:58:55.875Z,45.63
2023-04-17T09:01:23.034Z,45.63
2023-04-17T09:03:52.204Z,47.74
2023-04-17T09:06:19.498Z,47.20
2023-04-17T09:08:59.923Z,47.91
2023-04-17T09:11:27.444Z,47.82
2023-04-17T09:13:54.597Z,49.53
2023-04-17T09:16:22.127Z,49.61
2023-04-17T09:18:49.617Z,48.12
2023-04-17T09:21:18.765Z,48.22
2023-04-17T09:23:48.546Z,48.23
2023-04-17T09:26:16.879Z,48.08
2023-04-17T09:29:00.424Z,48.01
2023-04-17T09:31:30.253Z,49.60
2023-04-17T09:34:01.521Z,51.02
2023-04-17T09:36:30.576Z,53.36
2023-04-17T09:39:00.201Z,50.45
2023-04-17T09:41:28.821Z,50.65
2023-04-17T09:44:05.372Z,51.57
2023-04-17T09:46:40.702Z,49.44
2023-04-17T09:49:07.829Z,47.25
2023-04-17T09:51:35.198Z,47.60
2023-04-17T09:54:06.928Z,45.98
2023-04-17T09:56:35.501Z,45.72
2023-04-17T09:59:03.977Z,43.82
2023-04-17T10:01:32.613Z,41.36
2023-04-17T10:04:00.414Z,40.71
2023-04-17T10:06:28.266Z,39.14
2023-04-17T10:08:55.352Z,35.93
2023-04-17T10:11:24.319Z,36.59
2023-04-17T10:14:12.223Z,36.60
2023-04-17T10:16:40.547Z,35.95
2023-04-17T10:19:27.529Z,34.78
2023-04-17T10:22:13.449Z,34.29
2023-04-17T10:24:40.899Z,32.93
2023-04-17T10:27:26.327Z,33.96
2023-04-17T10:29:54.172Z,33.71
2023-04-17T10:32:24.067Z,34.08
2023-04-17T10:34:52.020Z,33.51
2023-04-17T10:37:19.484Z,33.21
2023-04-17T10:39:53.586Z,34.30
2023-04-17T10:42:21.417Z,32.15
2023-04-17T10:44:48.955Z,32.33
2023-04-17T10:47:19.448Z,34.69
2023-04-17T10:49:58.349Z,34.64
2023-04-17T10:52:31.771Z,35.03
2023-04-17T10:55:04.669Z,34.44
2023-04-17T10:57:50.183Z,35.01
2023-04-17T11:00:18.311Z,36.18
2023-04-17T11:02:46.174Z,37.81
2023-04-17T11:05:13.299Z,37.30
2023-04-17T11:07:41.568Z,36.82
2023-04-17T11:10:09.532Z,37.67
2023-04-17T11:12:36.791Z,36.26
2023-04-17T11:15:04.625Z,34.79
2023-04-17T11:17:31.932Z,33.52
2023-04-17T11:20:00.012Z,29.75
2023-04-17T11:22:33.810Z,28.38
2023-04-17T11:25:00.922Z,30.67
2023-04-17T11:27:28.014Z,30.84
2023-04-17T11:29:55.069Z,30.21
2023-04-17T11:32:22.133Z,28.90
2023-04-17T11:34:49.278Z,28.15
2023-04-17T11:37:16.400Z,28.99
2023-04-17T11:39:43.619Z,29.49
2023-04-17T11:42:10.830Z,31.67
2023-04-17T11:44:42.734Z,29.80
2023-04-17T11:47:10.875Z,32.26
2023-04-17T11:49:39.141Z,32.81
2023-04-17T11:52:06.416Z,33.58
2023-04-17T11:54:37.255Z,35.39
2023-04-17T11:57:11.545Z,36.02
2023-04-17T11:59:39.607Z,37.99
2023-04-17T12:02:07.454Z,35.78
2023-04-17T12:04:36.588Z,36.63
2023-04-17T12:07:04.686Z,37.21
2023-04-17T12:09:32.351Z,38.41
2023-04-17T12:12:06.553Z,37.77
2023-04-17T12:14:33.724Z,37.47
2023-04-17T12:17:01.203Z,39.21
2023-04-17T12:19:31.576Z,37.50
2023-04-17T12:21:59.482Z,36.81
2023-04-17T12:24:26.782Z,37.14
2023-04-17T12:26:54.515Z,35.84
2023-04-17T12:29:36.221Z,35.44
2023-04-17T12:32:10.375Z,36.55
2023-04-17T12:34:37.737Z,37.53
2023-04-17T12:37:04.850Z,38.10
2023-04-17T12:39:32.723Z,37.25
2023-04-17T12:41:59.760Z,37.29
2023-04-17T12:44:26.783Z,37.36
2023-04-17T12:46:53.829Z,37.94
2023-04-17T12:49:21.044Z,37.47
2023-04-17T12:51:48.181Z,37.64
2023-04-17T12:54:15.392Z,38.14
2023-04-17T12:56:42.495Z,38.58
2023-04-17T12:59:10.374Z,39.33
2023-04-17T13:01:37.474Z,38.22
2023-04-17T13:04:04.952Z,39.10
2023-04-17T13:06:32.477Z,39.01
2023-04-17T13:08:59.586Z,38.60
2023-04-17T13:11:26.758Z,38.78
2023-04-17T13:13:53.802Z,37.45
2023-04-17T13:16:23.328Z,36.96
2023-04-17T13:18:50.425Z,37.17
2023-04-17T13:21:17.533Z,37.34
2023-04-17T13:23:44.991Z,38.76
2023-04-17T13:26:14.324Z,39.50
2023-04-17T13:28:41.439Z,38.16
2023-04-17T13:31:08.572Z,38.13
2023-04-17T13:33:35.809Z,37.98
2023-04-17T13:36:02.887Z,37.79
2023-04-17T13:38:30.492Z,38.33
2023-04-17T13:40:57.544Z,37.69
2023-04-17T13:43:24.601Z,38.02
2023-04-17T13:45:54.137Z,37.06
2023-04-17T13:48:22.508Z,39.29
2023-04-17T13:50:49.569Z,39.54
2023-04-17T13:53:16.930Z,39.84
2023-04-17T13:55:44.051Z,39.24
2023-04-17T13:58:11.202Z,39.21
2023-04-17T14:00:38.293Z,39.32
2023-04-17T14:03:05.596Z,40.94
2023-04-17T14:05:33.010Z,40.17
2023-04-17T14:08:00.221Z,39.93
2023-04-17T14:10:27.365Z,41.41
2023-04-17T14:12:54.472Z,40.67
2023-04-17T14:15:21.580Z,41.98
2023-04-17T14:17:48.868Z,41.47
2023-04-17T14:20:17.897Z,41.48
2023-04-17T14:22:45.568Z,41.53
2023-04-17T14:25:13.281Z,42.81
2023-04-17T14:27:40.584Z,42.73
2023-04-17T14:30:08.291Z,42.22
2023-04-17T14:32:35.429Z,41.72
2023-04-17T14:35:02.500Z,41.29
2023-04-17T14:37:29.655Z,40.97
2023-04-17T14:39:56.823Z,40.24
2023-04-17T14:42:23.940Z,40.86
2023-04-17T14:44:51.087Z,40.13
2023-04-17T14:47:18.722Z,40.79
2023-04-17T14:49:45.853Z,41.07
2023-04-17T14:52:12.987Z,40.93
2023-04-17T14:54:40.209Z,41.24
2023-04-17T14:57:07.528Z,41.76
2023-04-17T14:59:34.597Z,41.94
2023-04-17T15:02:01.824Z,42.39
2023-04-17T15:04:29.171Z,41.75
2023-04-17T15:06:56.331Z,41.72
2023-04-17T15:09:23.378Z,41.18
2023-04-17T15:11:50.549Z,41.39
2023-04-17T15:14:17.596Z,41.55
2023-04-17T15:16:44.805Z,41.08
2023-04-17T15:19:12.186Z,42.18
2023-04-17T15:21:39.423Z,41.35
2023-04-17T15:24:06.693Z,43.04
2023-04-17T15:26:33.781Z,43.12
2023-04-17T15:29:01.062Z,43.65
2023-04-17T15:31:28.154Z,44.20
2023-04-17T15:33:55.235Z,44.46
2023-04-17T15:36:22.268Z,45.19
2023-04-17T15:38:51.715Z,45.88
2023-04-17T15:41:19.500Z,44.21
2023-04-17T15:43:46.615Z,43.51
2023-04-17T15:46:13.821Z,43.60
2023-04-17T15:48:40.975Z,44.17
2023-04-17T15:51:09.480Z,44.32
2023-04-17T15:53:36.524Z,43.96
2023-04-17T15:56:03.663Z,44.23
2023-04-17T15:58:30.803Z,44.23
2023-04-17T16:00:57.968Z,44.49
2023-04-17T16:03:25.250Z,45.62
2023-04-17T16:05:54.054Z,46.56
2023-04-17T16:08:21.272Z,45.96
2023-04-17T16:10:48.318Z,43.80
2023-04-17T16:13:16.170Z,44.42
2023-04-17T16:15:43.336Z,44.60
2023-04-17T16:18:10.470Z,45.97
2023-04-17T16:20:39.276Z,45.38
2023-04-17T16:23:06.526Z,45.33
2023-04-17T16:25:33.632Z,44.84
2023-04-17T16:28:00.683Z,45.90
2023-04-17T16:30:27.854Z,45.89
2023-04-17T16:32:55.008Z,45.36
2023-04-17T16:35:22.205Z,45.67
2023-04-17T16:37:49.332Z,46.16
2023-04-17T16:40:17.893Z,46.04
2023-04-17T16:42:45.049Z,46.96
2023-04-17T16:45:12.169Z,47.89
2023-04-17T16:47:39.444Z,48.05
2023-04-17T16:50:07.539Z,47.99
2023-04-17T16:52:35.491Z,48.30
2023-04-17T16:55:02.574Z,48.77
2023-04-17T16:57:31.104Z,49.72
2023-04-17T16:59:58.330Z,49.22
2023-04-17T17:02:25.685Z,49.20
2023-04-17T17:04:52.856Z,49.31
2023-04-17T17:07:19.951Z,49.11
2023-04-17T17:09:47.063Z,49.58
2023-04-17T17:12:14.088Z,49.67
2023-04-17T17:14:41.250Z,50.08
2023-04-17T17:17:08.344Z,49.98
2023-04-17T17:19:35.579Z,50.33
2023-04-17T17:22:02.675Z,50.50
2023-04-17T17:24:30.964Z,50.78
2023-04-17T17:26:58.082Z,49.99
2023-04-17T17:29:25.260Z,49.93
2023-04-17T17:31:52.391Z,50.15
2023-04-17T17:34:25.979Z,50.17
2023-04-17T17:36:53.956Z,50.99
2023-04-17T17:39:22.275Z,51.06
2023-04-17T17:41:49.745Z,50.99
2023-04-17T17:44:17.059Z,51.46
2023-04-17T17:46:44.164Z,51.58
2023-04-17T17:49:11.222Z,51.46
2023-04-17T17:51:38.360Z,51.62
2023-04-17T17:54:05.576Z,52.10
2023-04-17T17:56:32.692Z,51.95
2023-04-17T17:58:59.766Z,52.68
2023-04-17T18:01:26.888Z,53.01
2023-04-17T18:03:54.392Z,52.58
2023-04-17T18:06:21.752Z,52.75
2023-04-17T18:08:49.112Z,53.14
2023-04-17T18:11:16.280Z,53.79
2023-04-17T18:13:43.329Z,54.42
2023-04-17T18:16:10.588Z,56.06
2023-04-17T18:18:38.786Z,55.70
2023-04-17T18:21:09.327Z,55.84
2023-04-17T18:23:36.591Z,55.75
2023-04-17T18:26:03.989Z,55.99
2023-04-17T18:28:31.137Z,54.97
2023-04-17T18:30:58.296Z,55.66
2023-04-17T18:33:25.427Z,56.14
2023-04-17T18:35:52.580Z,57.06
2023-04-17T18:38:19.684Z,57.09
2023-04-17T18:40:46.729Z,57.60
2023-04-17T18:43:13.864Z,57.85
2023-04-17T18:45:41.006Z,58.07
2023-04-17T18:48:08.860Z,58.23
2023-04-17T18:50:38.391Z,58.24
2023-04-17T18:53:05.653Z,58.52
2023-04-17T18:55:33.145Z,58.50
2023-04-17T18:58:00.279Z,59.60
2023-04-17T19:00:27.531Z,59.20
2023-04-17T19:02:56.477Z,59.75
2023-04-17T19:05:26.110Z,59.71
2023-04-17T19:07:53.853Z,59.56
2023-04-17T19:10:21.927Z,60.53
2023-04-17T19:12:50.070Z,59.78
2023-04-17T19:15:17.677Z,59.17
2023-04-17T19:17:46.648Z,59.65
2023-04-17T19:20:16.596Z,59.18
2023-04-17T19:22:45.003Z,59.82
2023-04-17T19:25:12.347Z,59.77
2023-04-17T19:27:40.414Z,59.37
2023-04-17T19:30:08.226Z,59.60
2023-04-17T19:32:37.447Z,60.41
2023-04-17T19:35:05.222Z,60.45
2023-04-17T19:37:35.234Z,59.74
2023-04-17T19:40:08.539Z,60.35
2023-04-17T19:42:42.707Z,59.99
2023-04-17T19:45:10.795Z,59.84
2023-04-17T19:47:40.993Z,60.76
2023-04-17T19:50:11.194Z,60.45
2023-04-17T19:52:38.781Z,60.72
2023-04-17T19:55:07.990Z,60.67
2023-04-17T19:57:35.240Z,60.81
2023-04-17T20:00:03.356Z,61.51
2023-04-17T20:02:39.887Z,61.60
2023-04-17T20:05:07.480Z,62.16
2023-04-17T20:07:35.478Z,62.25
2023-04-17T20:10:03.161Z,62.03
2023-04-17T20:12:32.023Z,62.18
2023-04-17T20:14:59.435Z,62.23
2023-04-17T20:17:27.557Z,62.06
2023-04-17T20:19:55.055Z,61.23
2023-04-17T20:22:22.553Z,61.48
2023-04-17T20:24:50.824Z,61.70
2023-04-17T20:27:18.070Z,61.74
2023-04-17T20:29:45.645Z,61.01
2023-04-17T20:32:13.061Z,60.54
2023-04-17T20:34:40.630Z,60.46
2023-04-17T20:37:07.876Z,60.20
2023-04-17T20:39:35.007Z,60.33
2023-04-17T20:42:03.986Z,60.06
2023-04-17T20:44:31.943Z,60.25
2023-04-17T20:46:59.241Z,60.23
2023-04-17T20:49:26.620Z,60.28
2023-04-17T20:51:53.815Z,60.61
2023-04-17T20:54:20.927Z,60.71
2023-04-17T20:56:48.037Z,61.19
2023-04-17T20:59:15.133Z,62.08
2023-04-17T21:01:42.180Z,61.97
2023-04-17T21:04:10.854Z,62.80
2023-04-17T21:06:38.916Z,62.38
2023-04-17T21:09:06.253Z,62.87
2023-04-17T21:11:33.409Z,62.79
2023-04-17T21:14:01.138Z,63.15
2023-04-17T21:16:29.836Z,63.24
2023-04-17T21:18:57.166Z,63.77
2023-04-17T21:21:24.256Z,64.26
2023-04-17T21:23:51.530Z,63.84
2023-04-17T21:26:18.805Z,64.01
2023-04-17T21:28:46.097Z,64.02
2023-04-17T21:31:13.778Z,64.06
2023-04-17T21:33:40.898Z,64.18
2023-04-17T21:36:08.315Z,64.65
2023-04-17T21:38:35.579Z,64.70
2023-04-17T21:41:02.818Z,64.08
2023-04-17T21:43:30.162Z,64.99
2023-04-17T21:45:57.543Z,65.40
2023-04-17T21:48:24.921Z,65.79
2023-04-17T21:50:52.784Z,66.05
2023-04-17T21:53:19.928Z,65.97
2023-04-17T21:55:47.090Z,65.91
2023-04-17T21:58:32.459Z,66.50
2023-04-17T22:01:01.187Z,66.83
2023-04-17T22:03:30.680Z,66.96
2023-04-17T22:05:58.093Z,67.69
2023-04-17T22:08:25.467Z,67.85
2023-04-17T22:10:52.729Z,68.43
2023-04-17T22:13:21.285Z,67.97
2023-04-17T22:15:49.325Z,67.87
2023-04-17T22:18:16.586Z,67.81
2023-04-17T22:20:44.028Z,68.58
2023-04-17T22:23:11.285Z,69.15
2023-04-17T22:25:38.492Z,67.61
2023-04-17T22:28:05.769Z,67.54
2023-04-17T22:30:33.039Z,68.07
2023-04-17T22:33:00.471Z,69.14
2023-04-17T22:35:27.932Z,68.48
2023-04-17T22:37:55.219Z,69.36
2023-04-17T22:40:22.549Z,69.60
2023-04-17T22:42:50.649Z,69.98
2023-04-17T22:45:17.952Z,70.32
2023-04-17T22:47:45.313Z,70.85
2023-04-17T22:50:14.218Z,72.01
2023-04-17T22:52:41.533Z,70.86
2023-04-17T22:55:08.835Z,71.42
2023-04-17T22:57:36.214Z,71.31
2023-04-17T23:00:03.907Z,71.84
2023-04-17T23:02:31.437Z,71.70
2023-04-17T23:05:00.012Z,72.45
2023-04-17T23:07:27.430Z,72.26
2023-04-17T23:09:54.628Z,72.43
2023-04-17T23:12:21.821Z,72.54
2023-04-17T23:14:49.165Z,72.98
2023-04-17T23:17:16.396Z,72.82
2023-04-17T23:19:43.624Z,73.33
2023-04-17T23:22:10.845Z,72.87
2023-04-17T23:24:38.110Z,72.46
2023-04-17T23:27:05.354Z,72.28
2023-04-17T23:29:32.552Z,72.82
2023-04-17T23:31:59.935Z,72.43
2023-04-17T23:34:27.963Z,73.32
2023-04-17T23:36:55.177Z,72.29
2023-04-17T23:39:22.460Z,72.91
2023-04-17T23:41:49.920Z,74.08
2023-04-17T23:44:17.163Z,76.20
2023-04-17T23:46:44.496Z,74.39
2023-04-17T23:49:11.785Z,74.16
2023-04-17T23:51:39.444Z,72.90
2023-04-17T23:54:08.009Z,73.16
2023-04-17T23:56:35.814Z,74.86
2023-04-17T23:59:03.086Z,74.15
